Senshu Maru — JCIR — position and weather

sailwx.info

Track history (hours):
 
Tides and Currents Weather Stations Pressure Air Temp Water Temp Dewpoint Dewpoint Depression Visibility Wind Speed Wind Dir Waves Ship Positions

Oceanographic research ship Senshu Maru (Japan)

Detailed information on ship capabilities available from University of Delaware's Ocean Information Center.

Last reported at 2017-Oct-08 04:49 UTC. Time now 2017-Oct-17 06:04 UTC.
Position N 34°02' E 134°57'.
Warning: this ship's position is 9 days out of date.

Length 283 m; beam 44.8 m.

Type: Ship (hazmat cat A). MMSI: 431023000.

Date/timePositionNaut miles runAvg speedWind from/ knotsBaromVisibWave heightAir tempDewpointWater temp
2017-Oct-08 04:49N 34°02' E 134°57'413.1
2017-Oct-08 04:30N 34°06' E 134°57'612.3
2017-Oct-08 04:00N 34°12' E 134°57'911.1
2017-Oct-08 03:09N 34°22' E 135°00'212.1
2017-Oct-08 03:00N 34°23' E 135°02'713.0
2017-Oct-08 02:30N 34°27' E 135°08'713.1
2017-Oct-08 02:00N 34°31' E 135°14'611.8
2017-Oct-08 01:30N 34°33' E 135°21'3 7.0
2017-Oct-08 01:00N 34°33' E 135°25'0 0.0
2017-Oct-07 03:21N 34°33' E 135°25'0 0.7
2017-Oct-07 03:00N 34°33' E 135°25'3 5.3
2017-Oct-07 02:28N 34°33' E 135°21'4 7.7
2017-Oct-07 02:00N 34°33' E 135°17'510.1
2017-Oct-07 01:30N 34°29' E 135°12'713.2
2017-Oct-07 01:00N 34°25' E 135°06'713.3
2017-Oct-07 00:29N 34°20' E 135°01'714.2
2017-Oct-07 00:00N 34°13' E 134°59'5 9.7
2017-Oct-06 23:30N 34°08' E 134°59'4 7.3
2017-Oct-06 23:00N 34°05' E 134°58'510.4
2017-Oct-06 22:30N 33°60' E 134°59'612.9
2017-Oct-06 22:00N 33°54' E 134°56'  
Track history (hours):
 
Tides and Currents Weather Stations Pressure Air Temp Water Temp Dewpoint Dewpoint Depression Visibility Wind Speed Wind Dir Waves Ship Positions

Oceanographic research ship Senshu Maru (Japan)

Detailed information on ship capabilities available from University of Delaware's Ocean Information Center.

Last reported at 2017-Oct-08 04:49 UTC. Time now 2017-Oct-17 06:04 UTC.
Position N 34°02' E 134°57'.
Warning: this ship's position is 9 days out of date.

Length 283 m; beam 44.8 m.

Type: Ship (hazmat cat A). MMSI: 431023000.

Date/timePositionNaut miles runAvg speedWind from/ knotsBaromVisibWave heightAir tempDewpointWater temp
2017-Oct-08 04:49N 34°02' E 134°57'413.1
2017-Oct-08 04:30N 34°06' E 134°57'612.3
2017-Oct-08 04:00N 34°12' E 134°57'911.1
2017-Oct-08 03:09N 34°22' E 135°00'212.1
2017-Oct-08 03:00N 34°23' E 135°02'713.0
2017-Oct-08 02:30N 34°27' E 135°08'713.1
2017-Oct-08 02:00N 34°31' E 135°14'611.8
2017-Oct-08 01:30N 34°33' E 135°21'3 7.0
2017-Oct-08 01:00N 34°33' E 135°25'0 0.0
2017-Oct-07 03:21N 34°33' E 135°25'0 0.7
2017-Oct-07 03:00N 34°33' E 135°25'3 5.3
2017-Oct-07 02:28N 34°33' E 135°21'4 7.7
2017-Oct-07 02:00N 34°33' E 135°17'510.1
2017-Oct-07 01:30N 34°29' E 135°12'713.2
2017-Oct-07 01:00N 34°25' E 135°06'713.3
2017-Oct-07 00:29N 34°20' E 135°01'714.2
2017-Oct-07 00:00N 34°13' E 134°59'5 9.7
2017-Oct-06 23:30N 34°08' E 134°59'4 7.3
2017-Oct-06 23:00N 34°05' E 134°58'510.4
2017-Oct-06 22:30N 33°60' E 134°59'612.9
2017-Oct-06 22:00N 33°54' E 134°56'  

Dump ship's entire track history